sensor_id;sensor_type;location;lat;lon;timestamp;P1;durP1;ratioP1;P2;durP2;ratioP2
29908;SDS011;36247;51.952;6.146;2023-12-04T00:00:20;51.30;;;24.27;;
29908;SDS011;36247;51.952;6.146;2023-12-04T00:02:49;47.67;;;22.75;;
29908;SDS011;36247;51.952;6.146;2023-12-04T00:05:14;49.20;;;22.30;;
29908;SDS011;36247;51.952;6.146;2023-12-04T00:07:40;49.80;;;21.80;;
29908;SDS011;36247;51.952;6.146;2023-12-04T00:10:05;44.20;;;20.60;;
29908;SDS011;36247;51.952;6.146;2023-12-04T00:12:35;47.10;;;21.80;;
29908;SDS011;36247;51.952;6.146;2023-12-04T00:15:02;46.25;;;22.50;;
29908;SDS011;36247;51.952;6.146;2023-12-04T00:17:29;46.17;;;21.98;;
29908;SDS011;36247;51.952;6.146;2023-12-04T00:19:55;47.20;;;21.00;;
29908;SDS011;36247;51.952;6.146;2023-12-04T00:22:20;48.50;;;23.17;;
29908;SDS011;36247;51.952;6.146;2023-12-04T00:24:46;47.10;;;22.15;;
29908;SDS011;36247;51.952;6.146;2023-12-04T00:27:12;42.58;;;20.83;;
29908;SDS011;36247;51.952;6.146;2023-12-04T00:29:38;49.67;;;22.05;;
29908;SDS011;36247;51.952;6.146;2023-12-04T00:32:04;44.40;;;21.63;;
29908;SDS011;36247;51.952;6.146;2023-12-04T00:34:30;44.42;;;21.00;;
29908;SDS011;36247;51.952;6.146;2023-12-04T00:36:55;45.95;;;20.55;;
29908;SDS011;36247;51.952;6.146;2023-12-04T00:39:21;38.35;;;18.25;;
29908;SDS011;36247;51.952;6.146;2023-12-04T00:41:46;46.45;;;20.23;;
29908;SDS011;36247;51.952;6.146;2023-12-04T00:44:12;41.38;;;20.35;;
29908;SDS011;36247;51.952;6.146;2023-12-04T00:46:37;41.85;;;20.65;;
29908;SDS011;36247;51.952;6.146;2023-12-04T00:49:06;45.22;;;21.42;;
29908;SDS011;36247;51.952;6.146;2023-12-04T00:51:38;44.20;;;21.67;;
29908;SDS011;36247;51.952;6.146;2023-12-04T00:54:04;48.20;;;20.08;;
29908;SDS011;36247;51.952;6.146;2023-12-04T00:56:29;42.95;;;19.35;;
29908;SDS011;36247;51.952;6.146;2023-12-04T00:58:55;43.60;;;21.40;;
29908;SDS011;36247;51.952;6.146;2023-12-04T01:01:20;44.63;;;21.58;;
29908;SDS011;36247;51.952;6.146;2023-12-04T01:03:46;42.83;;;20.30;;
29908;SDS011;36247;51.952;6.146;2023-12-04T01:06:21;47.60;;;20.67;;
29908;SDS011;36247;51.952;6.146;2023-12-04T01:08:47;42.15;;;19.13;;
29908;SDS011;36247;51.952;6.146;2023-12-04T01:11:14;38.65;;;17.95;;
29908;SDS011;36247;51.952;6.146;2023-12-04T01:13:40;45.75;;;20.02;;
29908;SDS011;36247;51.952;6.146;2023-12-04T01:16:05;41.70;;;19.70;;
29908;SDS011;36247;51.952;6.146;2023-12-04T01:18:32;40.58;;;19.27;;
29908;SDS011;36247;51.952;6.146;2023-12-04T01:20:58;42.05;;;19.05;;
29908;SDS011;36247;51.952;6.146;2023-12-04T01:23:23;42.03;;;19.65;;
29908;SDS011;36247;51.952;6.146;2023-12-04T01:25:49;41.58;;;20.17;;
29908;SDS011;36247;51.952;6.146;2023-12-04T01:28:14;39.08;;;19.52;;
29908;SDS011;36247;51.952;6.146;2023-12-04T01:30:43;42.13;;;19.95;;
29908;SDS011;36247;51.952;6.146;2023-12-04T01:33:09;39.63;;;18.58;;
29908;SDS011;36247;51.952;6.146;2023-12-04T01:35:36;39.70;;;18.80;;
29908;SDS011;36247;51.952;6.146;2023-12-04T01:38:03;38.90;;;20.10;;
29908;SDS011;36247;51.952;6.146;2023-12-04T01:40:29;40.55;;;18.92;;
29908;SDS011;36247;51.952;6.146;2023-12-04T01:42:55;40.33;;;18.08;;
29908;SDS011;36247;51.952;6.146;2023-12-04T01:45:20;40.25;;;19.70;;
29908;SDS011;36247;51.952;6.146;2023-12-04T01:47:46;38.33;;;18.65;;
29908;SDS011;36247;51.952;6.146;2023-12-04T01:50:12;35.92;;;18.05;;
29908;SDS011;36247;51.952;6.146;2023-12-04T01:52:39;35.35;;;19.45;;
29908;SDS011;36247;51.952;6.146;2023-12-04T01:55:05;36.60;;;17.45;;
29908;SDS011;36247;51.952;6.146;2023-12-04T01:57:34;40.25;;;18.95;;
29908;SDS011;36247;51.952;6.146;2023-12-04T02:00:00;36.15;;;17.35;;
29908;SDS011;36247;51.952;6.146;2023-12-04T02:02:28;38.30;;;18.48;;
29908;SDS011;36247;51.952;6.146;2023-12-04T02:04:55;41.50;;;19.15;;
29908;SDS011;36247;51.952;6.146;2023-12-04T02:07:23;30.73;;;16.88;;
29908;SDS011;36247;51.952;6.146;2023-12-04T02:09:49;35.40;;;18.30;;
29908;SDS011;36247;51.952;6.146;2023-12-04T02:12:14;36.53;;;18.63;;
29908;SDS011;36247;51.952;6.146;2023-12-04T02:14:41;31.17;;;17.27;;
29908;SDS011;36247;51.952;6.146;2023-12-04T02:17:08;36.10;;;17.55;;
29908;SDS011;36247;51.952;6.146;2023-12-04T02:19:35;36.33;;;17.88;;
29908;SDS011;36247;51.952;6.146;2023-12-04T02:22:00;30.25;;;15.80;;
29908;SDS011;36247;51.952;6.146;2023-12-04T02:24:34;32.03;;;16.63;;
29908;SDS011;36247;51.952;6.146;2023-12-04T02:27:17;38.58;;;17.73;;
29908;SDS011;36247;51.952;6.146;2023-12-04T02:30:07;36.40;;;17.70;;
29908;SDS011;36247;51.952;6.146;2023-12-04T02:32:37;36.40;;;17.35;;
29908;SDS011;36247;51.952;6.146;2023-12-04T02:35:13;36.03;;;16.75;;
29908;SDS011;36247;51.952;6.146;2023-12-04T02:37:44;32.83;;;16.67;;
29908;SDS011;36247;51.952;6.146;2023-12-04T02:40:12;33.08;;;16.95;;
29908;SDS011;36247;51.952;6.146;2023-12-04T02:42:39;32.08;;;17.15;;
29908;SDS011;36247;51.952;6.146;2023-12-04T02:45:05;38.03;;;17.02;;
29908;SDS011;36247;51.952;6.146;2023-12-04T02:47:31;31.42;;;16.85;;
29908;SDS011;36247;51.952;6.146;2023-12-04T02:49:58;35.05;;;17.17;;
29908;SDS011;36247;51.952;6.146;2023-12-04T02:52:23;35.03;;;16.45;;
29908;SDS011;36247;51.952;6.146;2023-12-04T02:54:49;30.33;;;17.60;;
29908;SDS011;36247;51.952;6.146;2023-12-04T02:57:15;31.13;;;16.15;;
29908;SDS011;36247;51.952;6.146;2023-12-04T02:59:40;31.13;;;16.63;;
29908;SDS011;36247;51.952;6.146;2023-12-04T03:02:05;35.72;;;17.80;;
29908;SDS011;36247;51.952;6.146;2023-12-04T03:04:32;29.35;;;15.27;;
29908;SDS011;36247;51.952;6.146;2023-12-04T03:07:00;29.15;;;15.73;;
29908;SDS011;36247;51.952;6.146;2023-12-04T03:09:25;27.30;;;14.68;;
29908;SDS011;36247;51.952;6.146;2023-12-04T03:11:51;30.02;;;15.80;;
29908;SDS011;36247;51.952;6.146;2023-12-04T03:14:16;29.60;;;15.60;;
29908;SDS011;36247;51.952;6.146;2023-12-04T03:16:42;28.73;;;14.73;;
29908;SDS011;36247;51.952;6.146;2023-12-04T03:19:08;32.10;;;16.52;;
29908;SDS011;36247;51.952;6.146;2023-12-04T03:21:34;32.03;;;16.20;;
29908;SDS011;36247;51.952;6.146;2023-12-04T03:24:00;31.85;;;15.40;;
29908;SDS011;36247;51.952;6.146;2023-12-04T03:26:31;29.63;;;15.57;;
29908;SDS011;36247;51.952;6.146;2023-12-04T03:28:58;28.80;;;16.25;;
29908;SDS011;36247;51.952;6.146;2023-12-04T03:31:24;29.08;;;15.93;;
29908;SDS011;36247;51.952;6.146;2023-12-04T03:33:50;26.65;;;13.27;;
29908;SDS011;36247;51.952;6.146;2023-12-04T03:36:16;31.98;;;15.45;;
29908;SDS011;36247;51.952;6.146;2023-12-04T03:38:42;28.88;;;15.43;;
29908;SDS011;36247;51.952;6.146;2023-12-04T03:41:14;30.83;;;14.27;;
29908;SDS011;36247;51.952;6.146;2023-12-04T03:43:40;31.40;;;17.15;;
29908;SDS011;36247;51.952;6.146;2023-12-04T03:46:06;28.88;;;14.60;;
29908;SDS011;36247;51.952;6.146;2023-12-04T03:48:34;29.75;;;15.77;;
29908;SDS011;36247;51.952;6.146;2023-12-04T03:51:00;28.38;;;14.43;;
29908;SDS011;36247;51.952;6.146;2023-12-04T03:53:26;29.10;;;14.15;;
29908;SDS011;36247;51.952;6.146;2023-12-04T03:55:53;27.58;;;14.27;;
29908;SDS011;36247;51.952;6.146;2023-12-04T03:58:19;26.30;;;14.05;;
29908;SDS011;36247;51.952;6.146;2023-12-04T04:00:44;26.80;;;13.82;;
29908;SDS011;36247;51.952;6.146;2023-12-04T04:03:10;29.13;;;15.05;;
29908;SDS011;36247;51.952;6.146;2023-12-04T04:05:36;26.02;;;13.68;;
29908;SDS011;36247;51.952;6.146;2023-12-04T04:08:03;28.30;;;14.30;;
29908;SDS011;36247;51.952;6.146;2023-12-04T04:10:30;24.50;;;13.25;;
29908;SDS011;36247;51.952;6.146;2023-12-04T04:12:57;25.15;;;13.82;;
29908;SDS011;36247;51.952;6.146;2023-12-04T04:15:23;26.75;;;15.15;;
29908;SDS011;36247;51.952;6.146;2023-12-04T04:17:48;27.38;;;13.65;;
29908;SDS011;36247;51.952;6.146;2023-12-04T04:20:14;24.75;;;13.63;;
29908;SDS011;36247;51.952;6.146;2023-12-04T04:22:39;24.52;;;13.43;;
29908;SDS011;36247;51.952;6.146;2023-12-04T04:25:09;28.55;;;13.77;;
29908;SDS011;36247;51.952;6.146;2023-12-04T04:27:36;23.70;;;13.52;;
29908;SDS011;36247;51.952;6.146;2023-12-04T04:30:02;23.42;;;12.48;;
29908;SDS011;36247;51.952;6.146;2023-12-04T04:32:29;23.05;;;12.88;;
29908;SDS011;36247;51.952;6.146;2023-12-04T04:34:55;22.30;;;12.50;;
29908;SDS011;36247;51.952;6.146;2023-12-04T04:37:20;24.67;;;12.70;;
29908;SDS011;36247;51.952;6.146;2023-12-04T04:39:46;26.10;;;14.02;;
29908;SDS011;36247;51.952;6.146;2023-12-04T04:42:12;24.33;;;12.88;;
29908;SDS011;36247;51.952;6.146;2023-12-04T04:44:39;22.85;;;11.82;;
29908;SDS011;36247;51.952;6.146;2023-12-04T04:47:04;22.95;;;12.88;;
29908;SDS011;36247;51.952;6.146;2023-12-04T04:49:30;24.27;;;13.48;;
29908;SDS011;36247;51.952;6.146;2023-12-04T04:51:58;25.13;;;12.43;;
29908;SDS011;36247;51.952;6.146;2023-12-04T04:54:23;25.00;;;12.85;;
29908;SDS011;36247;51.952;6.146;2023-12-04T04:56:49;22.45;;;11.98;;
29908;SDS011;36247;51.952;6.146;2023-12-04T04:59:14;23.40;;;12.50;;
29908;SDS011;36247;51.952;6.146;2023-12-04T05:01:40;23.02;;;11.85;;
29908;SDS011;36247;51.952;6.146;2023-12-04T05:04:05;22.83;;;12.27;;
29908;SDS011;36247;51.952;6.146;2023-12-04T05:06:32;23.52;;;12.02;;
29908;SDS011;36247;51.952;6.146;2023-12-04T05:08:58;23.58;;;12.73;;
29908;SDS011;36247;51.952;6.146;2023-12-04T05:11:24;22.80;;;12.68;;
29908;SDS011;36247;51.952;6.146;2023-12-04T05:13:49;28.52;;;12.18;;
29908;SDS011;36247;51.952;6.146;2023-12-04T05:16:15;21.92;;;12.52;;
29908;SDS011;36247;51.952;6.146;2023-12-04T05:18:41;21.58;;;11.68;;
29908;SDS011;36247;51.952;6.146;2023-12-04T05:21:09;24.40;;;14.98;;
29908;SDS011;36247;51.952;6.146;2023-12-04T05:23:36;26.67;;;12.07;;
29908;SDS011;36247;51.952;6.146;2023-12-04T05:26:05;23.98;;;12.32;;
29908;SDS011;36247;51.952;6.146;2023-12-04T05:28:32;20.90;;;11.20;;
29908;SDS011;36247;51.952;6.146;2023-12-04T05:31:00;18.45;;;11.18;;
29908;SDS011;36247;51.952;6.146;2023-12-04T05:33:25;21.30;;;12.20;;
29908;SDS011;36247;51.952;6.146;2023-12-04T05:35:51;20.17;;;12.27;;
29908;SDS011;36247;51.952;6.146;2023-12-04T05:38:17;20.85;;;12.00;;
29908;SDS011;36247;51.952;6.146;2023-12-04T05:40:43;21.40;;;11.48;;
29908;SDS011;36247;51.952;6.146;2023-12-04T05:43:08;21.50;;;10.90;;
29908;SDS011;36247;51.952;6.146;2023-12-04T05:45:34;19.85;;;10.65;;
29908;SDS011;36247;51.952;6.146;2023-12-04T05:48:00;21.20;;;11.38;;
29908;SDS011;36247;51.952;6.146;2023-12-04T05:50:28;18.92;;;11.13;;
29908;SDS011;36247;51.952;6.146;2023-12-04T05:52:54;17.58;;;10.43;;
29908;SDS011;36247;51.952;6.146;2023-12-04T05:55:19;19.08;;;10.27;;
29908;SDS011;36247;51.952;6.146;2023-12-04T05:57:45;18.42;;;10.75;;
29908;SDS011;36247;51.952;6.146;2023-12-04T06:00:12;18.98;;;10.60;;
29908;SDS011;36247;51.952;6.146;2023-12-04T06:02:42;19.27;;;10.68;;
29908;SDS011;36247;51.952;6.146;2023-12-04T06:05:08;19.60;;;10.48;;
29908;SDS011;36247;51.952;6.146;2023-12-04T06:07:35;22.65;;;11.52;;
29908;SDS011;36247;51.952;6.146;2023-12-04T06:10:02;18.23;;;10.90;;
29908;SDS011;36247;51.952;6.146;2023-12-04T06:12:30;18.83;;;11.20;;
29908;SDS011;36247;51.952;6.146;2023-12-04T06:14:57;19.40;;;10.55;;
29908;SDS011;36247;51.952;6.146;2023-12-04T06:17:23;20.88;;;11.77;;
29908;SDS011;36247;51.952;6.146;2023-12-04T06:19:50;19.77;;;10.43;;
29908;SDS011;36247;51.952;6.146;2023-12-04T06:22:16;23.10;;;10.40;;
29908;SDS011;36247;51.952;6.146;2023-12-04T06:24:43;17.42;;;10.25;;
29908;SDS011;36247;51.952;6.146;2023-12-04T06:27:10;18.92;;;9.88;;
29908;SDS011;36247;51.952;6.146;2023-12-04T06:29:40;15.55;;;9.38;;
29908;SDS011;36247;51.952;6.146;2023-12-04T06:32:05;15.75;;;9.25;;
29908;SDS011;36247;51.952;6.146;2023-12-04T06:34:32;19.35;;;10.05;;
29908;SDS011;36247;51.952;6.146;2023-12-04T06:36:58;20.90;;;10.40;;
29908;SDS011;36247;51.952;6.146;2023-12-04T06:39:24;18.83;;;10.88;;
29908;SDS011;36247;51.952;6.146;2023-12-04T06:41:55;18.60;;;9.25;;
29908;SDS011;36247;51.952;6.146;2023-12-04T06:44:21;18.90;;;10.48;;
29908;SDS011;36247;51.952;6.146;2023-12-04T06:46:47;15.15;;;8.88;;
29908;SDS011;36247;51.952;6.146;2023-12-04T06:49:15;16.80;;;9.68;;
29908;SDS011;36247;51.952;6.146;2023-12-04T06:51:42;15.45;;;8.38;;
29908;SDS011;36247;51.952;6.146;2023-12-04T06:54:08;17.15;;;9.40;;
29908;SDS011;36247;51.952;6.146;2023-12-04T06:56:34;15.63;;;8.32;;
29908;SDS011;36247;51.952;6.146;2023-12-04T06:58:59;14.48;;;8.52;;
29908;SDS011;36247;51.952;6.146;2023-12-04T07:01:25;17.98;;;9.23;;
29908;SDS011;36247;51.952;6.146;2023-12-04T07:03:51;15.85;;;9.30;;
29908;SDS011;36247;51.952;6.146;2023-12-04T07:06:17;16.77;;;8.57;;
29908;SDS011;36247;51.952;6.146;2023-12-04T07:08:43;15.82;;;8.55;;
29908;SDS011;36247;51.952;6.146;2023-12-04T07:11:09;13.32;;;8.65;;
29908;SDS011;36247;51.952;6.146;2023-12-04T07:13:34;17.83;;;8.88;;
29908;SDS011;36247;51.952;6.146;2023-12-04T07:16:00;15.60;;;8.57;;
29908;SDS011;36247;51.952;6.146;2023-12-04T07:18:25;15.52;;;9.23;;
29908;SDS011;36247;51.952;6.146;2023-12-04T07:20:52;14.32;;;8.70;;
29908;SDS011;36247;51.952;6.146;2023-12-04T07:23:18;14.68;;;8.60;;
29908;SDS011;36247;51.952;6.146;2023-12-04T07:25:43;17.35;;;9.38;;
29908;SDS011;36247;51.952;6.146;2023-12-04T07:28:09;16.08;;;8.90;;
29908;SDS011;36247;51.952;6.146;2023-12-04T07:30:34;17.27;;;9.02;;
29908;SDS011;36247;51.952;6.146;2023-12-04T07:33:00;14.50;;;8.95;;
29908;SDS011;36247;51.952;6.146;2023-12-04T07:35:25;17.75;;;9.07;;
29908;SDS011;36247;51.952;6.146;2023-12-04T07:37:52;16.05;;;9.13;;
29908;SDS011;36247;51.952;6.146;2023-12-04T07:40:18;13.95;;;8.50;;
29908;SDS011;36247;51.952;6.146;2023-12-04T07:42:43;16.13;;;9.43;;
29908;SDS011;36247;51.952;6.146;2023-12-04T07:45:09;18.00;;;9.38;;
29908;SDS011;36247;51.952;6.146;2023-12-04T07:47:36;17.25;;;9.85;;
29908;SDS011;36247;51.952;6.146;2023-12-04T07:50:03;17.35;;;10.25;;
29908;SDS011;36247;51.952;6.146;2023-12-04T07:52:30;18.23;;;10.48;;
29908;SDS011;36247;51.952;6.146;2023-12-04T07:54:55;16.42;;;9.13;;
29908;SDS011;36247;51.952;6.146;2023-12-04T07:57:22;18.30;;;9.90;;
29908;SDS011;36247;51.952;6.146;2023-12-04T07:59:48;16.02;;;9.30;;
29908;SDS011;36247;51.952;6.146;2023-12-04T08:02:13;18.88;;;10.23;;
29908;SDS011;36247;51.952;6.146;2023-12-04T08:04:39;15.93;;;9.73;;
29908;SDS011;36247;51.952;6.146;2023-12-04T08:07:04;17.25;;;10.40;;
29908;SDS011;36247;51.952;6.146;2023-12-04T08:09:30;20.75;;;11.43;;
29908;SDS011;36247;51.952;6.146;2023-12-04T08:11:56;15.68;;;8.80;;
29908;SDS011;36247;51.952;6.146;2023-12-04T08:14:22;19.23;;;10.20;;
29908;SDS011;36247;51.952;6.146;2023-12-04T08:16:49;16.92;;;10.02;;
29908;SDS011;36247;51.952;6.146;2023-12-04T08:19:15;17.83;;;9.65;;
29908;SDS011;36247;51.952;6.146;2023-12-04T08:21:41;16.80;;;9.70;;
29908;SDS011;36247;51.952;6.146;2023-12-04T08:24:07;17.52;;;10.10;;
29908;SDS011;36247;51.952;6.146;2023-12-04T08:26:33;18.70;;;9.70;;
29908;SDS011;36247;51.952;6.146;2023-12-04T08:29:00;21.83;;;11.50;;
29908;SDS011;36247;51.952;6.146;2023-12-04T08:31:25;18.63;;;10.98;;
29908;SDS011;36247;51.952;6.146;2023-12-04T08:33:51;15.05;;;8.70;;
29908;SDS011;36247;51.952;6.146;2023-12-04T08:36:16;18.65;;;10.73;;
29908;SDS011;36247;51.952;6.146;2023-12-04T08:38:42;19.73;;;11.20;;
29908;SDS011;36247;51.952;6.146;2023-12-04T08:41:07;18.88;;;10.13;;
29908;SDS011;36247;51.952;6.146;2023-12-04T08:43:33;17.15;;;10.45;;
29908;SDS011;36247;51.952;6.146;2023-12-04T08:46:00;21.08;;;10.88;;
29908;SDS011;36247;51.952;6.146;2023-12-04T08:48:26;19.08;;;10.50;;
29908;SDS011;36247;51.952;6.146;2023-12-04T08:50:53;21.13;;;11.23;;
29908;SDS011;36247;51.952;6.146;2023-12-04T08:53:18;19.77;;;11.73;;
29908;SDS011;36247;51.952;6.146;2023-12-04T08:55:44;22.67;;;11.50;;
29908;SDS011;36247;51.952;6.146;2023-12-04T08:58:09;22.92;;;11.52;;
29908;SDS011;36247;51.952;6.146;2023-12-04T09:00:36;19.98;;;11.50;;
29908;SDS011;36247;51.952;6.146;2023-12-04T09:03:03;19.17;;;10.73;;
29908;SDS011;36247;51.952;6.146;2023-12-04T09:05:33;18.58;;;11.80;;
29908;SDS011;36247;51.952;6.146;2023-12-04T09:08:00;18.45;;;10.75;;
29908;SDS011;36247;51.952;6.146;2023-12-04T09:10:30;19.08;;;11.25;;
29908;SDS011;36247;51.952;6.146;2023-12-04T09:12:55;18.92;;;10.30;;
29908;SDS011;36247;51.952;6.146;2023-12-04T09:15:21;19.90;;;11.40;;
29908;SDS011;36247;51.952;6.146;2023-12-04T09:17:47;19.23;;;10.52;;
29908;SDS011;36247;51.952;6.146;2023-12-04T09:20:13;14.68;;;9.90;;
29908;SDS011;36247;51.952;6.146;2023-12-04T09:22:39;21.60;;;12.15;;
29908;SDS011;36247;51.952;6.146;2023-12-04T09:25:05;18.65;;;10.80;;
29908;SDS011;36247;51.952;6.146;2023-12-04T09:27:33;19.38;;;11.57;;
29908;SDS011;36247;51.952;6.146;2023-12-04T09:29:59;19.65;;;11.38;;
29908;SDS011;36247;51.952;6.146;2023-12-04T09:32:25;19.98;;;11.65;;
29908;SDS011;36247;51.952;6.146;2023-12-04T09:34:51;20.33;;;11.85;;
29908;SDS011;36247;51.952;6.146;2023-12-04T09:37:16;17.33;;;10.77;;
29908;SDS011;36247;51.952;6.146;2023-12-04T09:39:42;20.90;;;11.55;;
29908;SDS011;36247;51.952;6.146;2023-12-04T09:42:07;17.27;;;11.23;;
29908;SDS011;36247;51.952;6.146;2023-12-04T09:44:34;21.00;;;11.10;;
29908;SDS011;36247;51.952;6.146;2023-12-04T09:47:03;18.45;;;11.60;;
29908;SDS011;36247;51.952;6.146;2023-12-04T09:49:30;20.20;;;11.23;;
29908;SDS011;36247;51.952;6.146;2023-12-04T09:51:58;20.05;;;11.75;;
29908;SDS011;36247;51.952;6.146;2023-12-04T09:54:28;21.73;;;11.85;;
29908;SDS011;36247;51.952;6.146;2023-12-04T09:56:55;17.38;;;10.65;;
29908;SDS011;36247;51.952;6.146;2023-12-04T09:59:21;20.25;;;11.90;;
29908;SDS011;36247;51.952;6.146;2023-12-04T10:01:51;20.90;;;12.27;;
29908;SDS011;36247;51.952;6.146;2023-12-04T10:04:16;22.20;;;12.95;;
29908;SDS011;36247;51.952;6.146;2023-12-04T10:06:42;21.10;;;11.73;;
29908;SDS011;36247;51.952;6.146;2023-12-04T10:09:08;19.80;;;11.40;;
29908;SDS011;36247;51.952;6.146;2023-12-04T10:11:42;17.58;;;10.68;;
29908;SDS011;36247;51.952;6.146;2023-12-04T10:14:20;16.20;;;11.27;;
29908;SDS011;36247;51.952;6.146;2023-12-04T10:16:47;19.02;;;11.68;;
29908;SDS011;36247;51.952;6.146;2023-12-04T10:21:47;17.98;;;10.95;;
29908;SDS011;36247;51.952;6.146;2023-12-04T10:24:26;19.10;;;11.13;;
29908;SDS011;36247;51.952;6.146;2023-12-04T10:26:53;18.88;;;11.68;;
29908;SDS011;36247;51.952;6.146;2023-12-04T10:29:18;16.88;;;10.27;;
29908;SDS011;36247;51.952;6.146;2023-12-04T10:31:44;15.80;;;9.77;;
29908;SDS011;36247;51.952;6.146;2023-12-04T10:34:10;18.90;;;11.15;;
29908;SDS011;36247;51.952;6.146;2023-12-04T10:36:36;17.00;;;10.35;;
29908;SDS011;36247;51.952;6.146;2023-12-04T10:39:03;17.98;;;10.90;;
29908;SDS011;36247;51.952;6.146;2023-12-04T10:41:30;15.95;;;9.85;;
29908;SDS011;36247;51.952;6.146;2023-12-04T10:43:57;16.02;;;9.60;;
29908;SDS011;36247;51.952;6.146;2023-12-04T10:46:27;16.85;;;9.60;;
29908;SDS011;36247;51.952;6.146;2023-12-04T10:48:53;13.75;;;9.40;;
29908;SDS011;36247;51.952;6.146;2023-12-04T10:51:19;16.33;;;10.35;;
29908;SDS011;36247;51.952;6.146;2023-12-04T10:53:47;16.25;;;9.75;;
29908;SDS011;36247;51.952;6.146;2023-12-04T10:56:35;14.18;;;8.43;;
29908;SDS011;36247;51.952;6.146;2023-12-04T10:59:03;16.05;;;9.77;;
29908;SDS011;36247;51.952;6.146;2023-12-04T11:01:37;15.35;;;8.98;;
29908;SDS011;36247;51.952;6.146;2023-12-04T11:04:07;15.82;;;9.77;;
29908;SDS011;36247;51.952;6.146;2023-12-04T11:06:40;18.38;;;9.65;;
29908;SDS011;36247;51.952;6.146;2023-12-04T11:09:07;16.45;;;9.25;;
29908;SDS011;36247;51.952;6.146;2023-12-04T11:11:35;18.58;;;9.00;;
29908;SDS011;36247;51.952;6.146;2023-12-04T11:14:05;14.82;;;8.55;;
29908;SDS011;36247;51.952;6.146;2023-12-04T11:21:45;15.25;;;9.48;;
29908;SDS011;36247;51.952;6.146;2023-12-04T11:24:14;21.52;;;10.65;;
29908;SDS011;36247;51.952;6.146;2023-12-04T11:26:41;19.38;;;10.07;;
29908;SDS011;36247;51.952;6.146;2023-12-04T11:29:08;15.60;;;9.07;;
29908;SDS011;36247;51.952;6.146;2023-12-04T11:31:35;17.63;;;8.52;;
29908;SDS011;36247;51.952;6.146;2023-12-04T11:34:07;12.95;;;8.70;;
29908;SDS011;36247;51.952;6.146;2023-12-04T11:36:35;13.55;;;8.55;;
29908;SDS011;36247;51.952;6.146;2023-12-04T11:39:03;13.80;;;8.77;;
29908;SDS011;36247;51.952;6.146;2023-12-04T11:41:29;15.52;;;8.30;;
29908;SDS011;36247;51.952;6.146;2023-12-04T11:43:58;13.25;;;9.15;;
29908;SDS011;36247;51.952;6.146;2023-12-04T11:46:25;16.35;;;8.45;;
29908;SDS011;36247;51.952;6.146;2023-12-04T11:49:35;15.35;;;8.02;;
29908;SDS011;36247;51.952;6.146;2023-12-04T11:51:52;14.40;;;8.32;;
29908;SDS011;36247;51.952;6.146;2023-12-04T11:54:18;13.02;;;8.05;;
29908;SDS011;36247;51.952;6.146;2023-12-04T11:59:24;15.45;;;9.77;;
29908;SDS011;36247;51.952;6.146;2023-12-04T12:01:50;15.32;;;8.45;;
29908;SDS011;36247;51.952;6.146;2023-12-04T12:04:16;17.25;;;9.15;;
29908;SDS011;36247;51.952;6.146;2023-12-04T12:06:43;15.38;;;8.95;;
29908;SDS011;36247;51.952;6.146;2023-12-04T12:09:12;14.45;;;9.00;;
29908;SDS011;36247;51.952;6.146;2023-12-04T12:11:37;14.38;;;8.93;;
29908;SDS011;36247;51.952;6.146;2023-12-04T12:14:05;15.60;;;9.18;;
29908;SDS011;36247;51.952;6.146;2023-12-04T12:16:31;15.48;;;9.45;;
29908;SDS011;36247;51.952;6.146;2023-12-04T12:18:58;15.50;;;8.73;;
29908;SDS011;36247;51.952;6.146;2023-12-04T12:21:23;14.98;;;9.45;;
29908;SDS011;36247;51.952;6.146;2023-12-04T12:23:51;14.68;;;9.65;;
29908;SDS011;36247;51.952;6.146;2023-12-04T12:26:17;16.05;;;9.68;;
29908;SDS011;36247;51.952;6.146;2023-12-04T12:28:42;13.45;;;8.20;;
29908;SDS011;36247;51.952;6.146;2023-12-04T12:31:08;14.15;;;8.82;;
29908;SDS011;36247;51.952;6.146;2023-12-04T12:33:34;14.25;;;8.98;;
29908;SDS011;36247;51.952;6.146;2023-12-04T12:36:00;16.10;;;9.20;;
29908;SDS011;36247;51.952;6.146;2023-12-04T12:38:30;15.60;;;9.68;;
29908;SDS011;36247;51.952;6.146;2023-12-04T12:41:00;15.75;;;10.02;;
29908;SDS011;36247;51.952;6.146;2023-12-04T12:43:28;14.23;;;10.02;;
29908;SDS011;36247;51.952;6.146;2023-12-04T12:45:54;14.00;;;9.07;;
29908;SDS011;36247;51.952;6.146;2023-12-04T12:48:19;13.52;;;8.27;;
29908;SDS011;36247;51.952;6.146;2023-12-04T12:50:48;15.10;;;9.15;;
29908;SDS011;36247;51.952;6.146;2023-12-04T12:53:13;17.65;;;10.45;;
29908;SDS011;36247;51.952;6.146;2023-12-04T12:55:42;15.48;;;9.35;;
29908;SDS011;36247;51.952;6.146;2023-12-04T12:58:08;15.82;;;9.43;;
29908;SDS011;36247;51.952;6.146;2023-12-04T13:00:35;14.07;;;9.43;;
29908;SDS011;36247;51.952;6.146;2023-12-04T13:03:05;14.98;;;9.23;;
29908;SDS011;36247;51.952;6.146;2023-12-04T13:05:32;17.90;;;9.60;;
29908;SDS011;36247;51.952;6.146;2023-12-04T13:07:58;16.45;;;10.00;;
29908;SDS011;36247;51.952;6.146;2023-12-04T13:10:24;16.98;;;9.90;;
29908;SDS011;36247;51.952;6.146;2023-12-04T13:12:50;17.27;;;9.32;;
29908;SDS011;36247;51.952;6.146;2023-12-04T13:15:20;15.75;;;10.13;;
29908;SDS011;36247;51.952;6.146;2023-12-04T13:17:46;16.02;;;10.35;;
29908;SDS011;36247;51.952;6.146;2023-12-04T13:20:12;18.60;;;10.10;;
29908;SDS011;36247;51.952;6.146;2023-12-04T13:22:39;15.13;;;10.10;;
29908;SDS011;36247;51.952;6.146;2023-12-04T13:25:05;18.88;;;9.95;;
29908;SDS011;36247;51.952;6.146;2023-12-04T13:27:36;18.27;;;10.95;;
29908;SDS011;36247;51.952;6.146;2023-12-04T13:30:05;16.50;;;10.00;;
29908;SDS011;36247;51.952;6.146;2023-12-04T13:32:36;16.95;;;9.27;;
29908;SDS011;36247;51.952;6.146;2023-12-04T13:35:05;20.27;;;10.95;;
29908;SDS011;36247;51.952;6.146;2023-12-04T13:37:37;15.48;;;9.55;;
29908;SDS011;36247;51.952;6.146;2023-12-04T13:40:05;18.42;;;9.82;;
29908;SDS011;36247;51.952;6.146;2023-12-04T13:42:37;19.65;;;10.38;;
29908;SDS011;36247;51.952;6.146;2023-12-04T13:45:23;22.98;;;11.02;;
29908;SDS011;36247;51.952;6.146;2023-12-04T13:47:49;19.58;;;11.30;;
29908;SDS011;36247;51.952;6.146;2023-12-04T13:50:15;15.63;;;9.52;;
29908;SDS011;36247;51.952;6.146;2023-12-04T13:52:41;18.48;;;10.68;;
29908;SDS011;36247;51.952;6.146;2023-12-04T13:55:13;14.68;;;9.00;;
29908;SDS011;36247;51.952;6.146;2023-12-04T13:57:46;16.10;;;10.50;;
29908;SDS011;36247;51.952;6.146;2023-12-04T14:00:24;17.55;;;11.52;;
29908;SDS011;36247;51.952;6.146;2023-12-04T14:02:50;17.42;;;8.80;;
29908;SDS011;36247;51.952;6.146;2023-12-04T14:05:25;15.55;;;10.50;;
29908;SDS011;36247;51.952;6.146;2023-12-04T14:07:51;19.60;;;10.57;;
29908;SDS011;36247;51.952;6.146;2023-12-04T14:10:16;17.98;;;9.85;;
29908;SDS011;36247;51.952;6.146;2023-12-04T14:12:42;17.67;;;10.38;;
29908;SDS011;36247;51.952;6.146;2023-12-04T14:15:08;17.42;;;9.85;;
29908;SDS011;36247;51.952;6.146;2023-12-04T14:17:35;15.75;;;9.95;;
29908;SDS011;36247;51.952;6.146;2023-12-04T14:20:05;18.20;;;9.80;;
29908;SDS011;36247;51.952;6.146;2023-12-04T14:22:40;18.27;;;10.38;;
29908;SDS011;36247;51.952;6.146;2023-12-04T14:25:07;15.80;;;9.77;;
29908;SDS011;36247;51.952;6.146;2023-12-04T14:27:33;17.17;;;9.30;;
29908;SDS011;36247;51.952;6.146;2023-12-04T14:30:01;16.80;;;9.05;;
29908;SDS011;36247;51.952;6.146;2023-12-04T14:32:32;16.83;;;9.32;;
29908;SDS011;36247;51.952;6.146;2023-12-04T14:34:58;17.15;;;10.40;;